sensor_id;sensor_type;location;lat;lon;timestamp;temperature;humidity
7206;DHT22;3644;53.480;10.004;2023-03-01T00:01:40;1.90;99.90
7206;DHT22;3644;53.480;10.004;2023-03-01T00:04:06;1.90;99.90
7206;DHT22;3644;53.480;10.004;2023-03-01T00:06:31;1.80;99.90
7206;DHT22;3644;53.480;10.004;2023-03-01T00:08:57;1.90;99.90
7206;DHT22;3644;53.480;10.004;2023-03-01T00:11:26;1.90;99.90
7206;DHT22;3644;53.480;10.004;2023-03-01T00:13:54;1.80;99.90
7206;DHT22;3644;53.480;10.004;2023-03-01T00:16:25;1.80;99.90
7206;DHT22;3644;53.480;10.004;2023-03-01T00:18:51;1.70;99.90
7206;DHT22;3644;53.480;10.004;2023-03-01T00:21:18;1.70;99.90
7206;DHT22;3644;53.480;10.004;2023-03-01T00:23:44;1.80;99.90
7206;DHT22;3644;53.480;10.004;2023-03-01T00:26:12;1.70;99.90
7206;DHT22;3644;53.480;10.004;2023-03-01T00:28:38;1.70;99.90
7206;DHT22;3644;53.480;10.004;2023-03-01T00:31:05;1.70;99.90
7206;DHT22;3644;53.480;10.004;2023-03-01T00:33:32;1.70;99.90
7206;DHT22;3644;53.480;10.004;2023-03-01T00:35:58;1.70;99.90
7206;DHT22;3644;53.480;10.004;2023-03-01T00:38:24;1.70;99.90
7206;DHT22;3644;53.480;10.004;2023-03-01T00:40:50;1.60;99.90
7206;DHT22;3644;53.480;10.004;2023-03-01T00:43:15;1.70;99.90
7206;DHT22;3644;53.480;10.004;2023-03-01T00:45:41;1.60;99.90
7206;DHT22;3644;53.480;10.004;2023-03-01T00:48:06;1.50;99.90
7206;DHT22;3644;53.480;10.004;2023-03-01T00:50:32;1.60;99.90
7206;DHT22;3644;53.480;10.004;2023-03-01T00:52:57;1.60;99.90
7206;DHT22;3644;53.480;10.004;2023-03-01T00:55:23;1.50;99.90
7206;DHT22;3644;53.480;10.004;2023-03-01T00:57:49;1.60;99.90
7206;DHT22;3644;53.480;10.004;2023-03-01T01:00:15;1.60;99.90
7206;DHT22;3644;53.480;10.004;2023-03-01T01:02:40;1.60;99.90
7206;DHT22;3644;53.480;10.004;2023-03-01T01:05:06;1.60;99.90
7206;DHT22;3644;53.480;10.004;2023-03-01T01:07:32;1.60;99.90
7206;DHT22;3644;53.480;10.004;2023-03-01T01:09:57;1.60;99.90
7206;DHT22;3644;53.480;10.004;2023-03-01T01:12:23;1.50;99.90
7206;DHT22;3644;53.480;10.004;2023-03-01T01:14:48;1.40;99.90
7206;DHT22;3644;53.480;10.004;2023-03-01T01:17:14;1.50;99.90
7206;DHT22;3644;53.480;10.004;2023-03-01T01:19:39;1.50;99.90
7206;DHT22;3644;53.480;10.004;2023-03-01T01:22:05;1.50;99.90
7206;DHT22;3644;53.480;10.004;2023-03-01T01:24:31;1.50;99.90
7206;DHT22;3644;53.480;10.004;2023-03-01T01:26:56;1.40;99.90
7206;DHT22;3644;53.480;10.004;2023-03-01T01:29:22;1.30;99.90
7206;DHT22;3644;53.480;10.004;2023-03-01T01:31:48;1.20;99.90
7206;DHT22;3644;53.480;10.004;2023-03-01T01:34:16;1.40;99.90
7206;DHT22;3644;53.480;10.004;2023-03-01T01:36:42;1.40;99.90
7206;DHT22;3644;53.480;10.004;2023-03-01T01:39:08;1.40;99.90
7206;DHT22;3644;53.480;10.004;2023-03-01T01:41:38;1.40;99.90
7206;DHT22;3644;53.480;10.004;2023-03-01T01:44:18;1.50;99.90
7206;DHT22;3644;53.480;10.004;2023-03-01T01:49:41;1.30;99.90
7206;DHT22;3644;53.480;10.004;2023-03-01T01:55:00;1.40;99.90
7206;DHT22;3644;53.480;10.004;2023-03-01T01:57:31;1.40;99.90
7206;DHT22;3644;53.480;10.004;2023-03-01T02:00:03;1.30;99.90
7206;DHT22;3644;53.480;10.004;2023-03-01T02:02:29;1.40;99.90
7206;DHT22;3644;53.480;10.004;2023-03-01T02:05:03;1.30;99.90
7206;DHT22;3644;53.480;10.004;2023-03-01T02:07:38;1.30;99.90
7206;DHT22;3644;53.480;10.004;2023-03-01T02:10:05;1.30;99.90
7206;DHT22;3644;53.480;10.004;2023-03-01T02:12:31;1.40;99.90
7206;DHT22;3644;53.480;10.004;2023-03-01T02:14:57;1.30;99.90
7206;DHT22;3644;53.480;10.004;2023-03-01T02:17:23;1.50;99.90
7206;DHT22;3644;53.480;10.004;2023-03-01T02:22:27;1.40;99.90
7206;DHT22;3644;53.480;10.004;2023-03-01T02:30:39;1.40;99.90
7206;DHT22;3644;53.480;10.004;2023-03-01T02:33:26;1.40;99.90
7206;DHT22;3644;53.480;10.004;2023-03-01T02:35:53;1.40;99.90
7206;DHT22;3644;53.480;10.004;2023-03-01T02:38:20;1.50;99.90
7206;DHT22;3644;53.480;10.004;2023-03-01T02:40:47;1.50;99.90
7206;DHT22;3644;53.480;10.004;2023-03-01T02:43:14;1.50;99.90
7206;DHT22;3644;53.480;10.004;2023-03-01T02:45:51;1.50;99.90
7206;DHT22;3644;53.480;10.004;2023-03-01T02:48:19;1.60;99.90
7206;DHT22;3644;53.480;10.004;2023-03-01T02:51:11;1.50;99.90
7206;DHT22;3644;53.480;10.004;2023-03-01T02:53:51;1.50;99.90
7206;DHT22;3644;53.480;10.004;2023-03-01T02:56:20;1.50;99.90
7206;DHT22;3644;53.480;10.004;2023-03-01T02:58:46;1.50;99.90
7206;DHT22;3644;53.480;10.004;2023-03-01T03:01:16;1.50;99.90
7206;DHT22;3644;53.480;10.004;2023-03-01T03:03:42;1.50;99.90
7206;DHT22;3644;53.480;10.004;2023-03-01T03:06:08;1.50;99.90
7206;DHT22;3644;53.480;10.004;2023-03-01T03:08:34;1.40;99.90
7206;DHT22;3644;53.480;10.004;2023-03-01T03:10:59;1.40;99.90
7206;DHT22;3644;53.480;10.004;2023-03-01T03:13:25;1.50;99.90
7206;DHT22;3644;53.480;10.004;2023-03-01T03:15:57;1.50;99.90
7206;DHT22;3644;53.480;10.004;2023-03-01T03:18:23;1.50;99.90
7206;DHT22;3644;53.480;10.004;2023-03-01T03:20:52;1.60;99.90
7206;DHT22;3644;53.480;10.004;2023-03-01T03:23:19;1.60;99.90
7206;DHT22;3644;53.480;10.004;2023-03-01T03:25:48;1.50;99.90
7206;DHT22;3644;53.480;10.004;2023-03-01T03:28:13;1.40;99.90
7206;DHT22;3644;53.480;10.004;2023-03-01T03:30:41;1.50;99.90
7206;DHT22;3644;53.480;10.004;2023-03-01T03:33:08;1.50;99.90
7206;DHT22;3644;53.480;10.004;2023-03-01T03:35:39;1.50;99.90
7206;DHT22;3644;53.480;10.004;2023-03-01T03:38:06;1.50;99.90
7206;DHT22;3644;53.480;10.004;2023-03-01T03:40:52;1.50;99.90
7206;DHT22;3644;53.480;10.004;2023-03-01T03:43:26;1.50;99.90
7206;DHT22;3644;53.480;10.004;2023-03-01T03:45:51;1.40;99.90
7206;DHT22;3644;53.480;10.004;2023-03-01T03:48:18;1.50;99.90
7206;DHT22;3644;53.480;10.004;2023-03-01T03:50:48;1.40;99.90
7206;DHT22;3644;53.480;10.004;2023-03-01T03:53:14;1.50;99.90
7206;DHT22;3644;53.480;10.004;2023-03-01T03:55:40;1.50;99.90
7206;DHT22;3644;53.480;10.004;2023-03-01T03:58:08;1.50;99.90
7206;DHT22;3644;53.480;10.004;2023-03-01T04:00:40;1.70;99.90
7206;DHT22;3644;53.480;10.004;2023-03-01T04:03:06;1.60;99.90
7206;DHT22;3644;53.480;10.004;2023-03-01T04:05:32;1.70;99.90
7206;DHT22;3644;53.480;10.004;2023-03-01T04:07:58;1.80;99.90
7206;DHT22;3644;53.480;10.004;2023-03-01T04:10:43;1.80;99.90
7206;DHT22;3644;53.480;10.004;2023-03-01T04:13:12;1.70;99.90
7206;DHT22;3644;53.480;10.004;2023-03-01T04:15:39;1.80;99.90
7206;DHT22;3644;53.480;10.004;2023-03-01T04:18:05;2.00;99.90
7206;DHT22;3644;53.480;10.004;2023-03-01T04:20:33;2.10;99.90
7206;DHT22;3644;53.480;10.004;2023-03-01T04:23:14;2.10;99.90
7206;DHT22;3644;53.480;10.004;2023-03-01T04:28:14;2.10;99.90
7206;DHT22;3644;53.480;10.004;2023-03-01T04:30:40;2.20;99.90
7206;DHT22;3644;53.480;10.004;2023-03-01T04:33:07;2.20;99.90
7206;DHT22;3644;53.480;10.004;2023-03-01T04:35:35;2.30;99.90
7206;DHT22;3644;53.480;10.004;2023-03-01T04:38:00;2.00;99.90
7206;DHT22;3644;53.480;10.004;2023-03-01T04:40:26;2.10;99.90
7206;DHT22;3644;53.480;10.004;2023-03-01T04:42:51;2.20;99.90
7206;DHT22;3644;53.480;10.004;2023-03-01T04:45:17;2.20;99.90
7206;DHT22;3644;53.480;10.004;2023-03-01T04:47:45;2.30;99.90
7206;DHT22;3644;53.480;10.004;2023-03-01T04:50:13;2.30;99.90
7206;DHT22;3644;53.480;10.004;2023-03-01T04:52:39;2.50;99.90
7206;DHT22;3644;53.480;10.004;2023-03-01T04:55:05;2.50;99.90
7206;DHT22;3644;53.480;10.004;2023-03-01T04:57:31;2.50;99.90
7206;DHT22;3644;53.480;10.004;2023-03-01T04:59:57;2.50;99.90
7206;DHT22;3644;53.480;10.004;2023-03-01T05:02:22;2.60;99.90
7206;DHT22;3644;53.480;10.004;2023-03-01T05:04:48;2.50;99.90
7206;DHT22;3644;53.480;10.004;2023-03-01T05:07:14;2.50;99.90
7206;DHT22;3644;53.480;10.004;2023-03-01T05:09:47;2.40;99.90
7206;DHT22;3644;53.480;10.004;2023-03-01T05:12:13;2.40;99.90
7206;DHT22;3644;53.480;10.004;2023-03-01T05:14:40;2.50;99.90
7206;DHT22;3644;53.480;10.004;2023-03-01T05:17:06;2.50;99.90
7206;DHT22;3644;53.480;10.004;2023-03-01T05:19:32;2.70;99.90
7206;DHT22;3644;53.480;10.004;2023-03-01T05:21:58;2.70;99.90
7206;DHT22;3644;53.480;10.004;2023-03-01T05:24:27;2.70;99.90
7206;DHT22;3644;53.480;10.004;2023-03-01T05:26:53;2.70;99.90
7206;DHT22;3644;53.480;10.004;2023-03-01T05:29:20;2.80;99.90
7206;DHT22;3644;53.480;10.004;2023-03-01T05:31:56;2.80;99.90
7206;DHT22;3644;53.480;10.004;2023-03-01T05:34:27;2.70;99.90
7206;DHT22;3644;53.480;10.004;2023-03-01T05:36:53;2.80;99.90
7206;DHT22;3644;53.480;10.004;2023-03-01T05:39:29;2.80;99.90
7206;DHT22;3644;53.480;10.004;2023-03-01T05:41:57;3.00;99.90
7206;DHT22;3644;53.480;10.004;2023-03-01T05:44:23;3.00;99.90
7206;DHT22;3644;53.480;10.004;2023-03-01T05:46:49;3.00;99.90
7206;DHT22;3644;53.480;10.004;2023-03-01T05:49:15;3.00;99.90
7206;DHT22;3644;53.480;10.004;2023-03-01T05:51:42;3.10;99.90
7206;DHT22;3644;53.480;10.004;2023-03-01T05:54:09;3.10;99.90
7206;DHT22;3644;53.480;10.004;2023-03-01T05:56:36;3.20;99.90
7206;DHT22;3644;53.480;10.004;2023-03-01T05:59:02;3.10;99.90
7206;DHT22;3644;53.480;10.004;2023-03-01T06:01:28;3.10;99.90
7206;DHT22;3644;53.480;10.004;2023-03-01T06:03:54;3.10;99.90
7206;DHT22;3644;53.480;10.004;2023-03-01T06:06:21;3.10;99.90
7206;DHT22;3644;53.480;10.004;2023-03-01T06:08:46;3.20;99.90
7206;DHT22;3644;53.480;10.004;2023-03-01T06:11:12;3.40;99.90
7206;DHT22;3644;53.480;10.004;2023-03-01T06:13:37;3.50;99.90
7206;DHT22;3644;53.480;10.004;2023-03-01T06:16:06;3.40;99.90
7206;DHT22;3644;53.480;10.004;2023-03-01T06:18:32;3.40;99.90
7206;DHT22;3644;53.480;10.004;2023-03-01T06:20:57;3.40;99.90
7206;DHT22;3644;53.480;10.004;2023-03-01T06:23:24;3.40;99.90
7206;DHT22;3644;53.480;10.004;2023-03-01T06:25:50;3.50;99.90
7206;DHT22;3644;53.480;10.004;2023-03-01T06:28:15;3.60;99.90
7206;DHT22;3644;53.480;10.004;2023-03-01T06:30:41;3.40;99.90
7206;DHT22;3644;53.480;10.004;2023-03-01T06:33:06;3.40;99.90
7206;DHT22;3644;53.480;10.004;2023-03-01T06:35:32;3.50;99.90
7206;DHT22;3644;53.480;10.004;2023-03-01T06:38:01;3.50;99.90
7206;DHT22;3644;53.480;10.004;2023-03-01T06:40:27;3.50;99.90
7206;DHT22;3644;53.480;10.004;2023-03-01T06:42:53;3.50;99.90
7206;DHT22;3644;53.480;10.004;2023-03-01T06:45:20;3.50;99.90
7206;DHT22;3644;53.480;10.004;2023-03-01T06:47:46;3.50;99.90
7206;DHT22;3644;53.480;10.004;2023-03-01T06:50:13;3.50;99.90
7206;DHT22;3644;53.480;10.004;2023-03-01T06:52:39;3.60;99.90
7206;DHT22;3644;53.480;10.004;2023-03-01T06:55:05;3.60;99.90
7206;DHT22;3644;53.480;10.004;2023-03-01T06:57:31;3.60;99.90
7206;DHT22;3644;53.480;10.004;2023-03-01T06:59:57;3.70;99.90
7206;DHT22;3644;53.480;10.004;2023-03-01T07:02:23;3.70;99.90
7206;DHT22;3644;53.480;10.004;2023-03-01T07:04:49;3.70;99.90
7206;DHT22;3644;53.480;10.004;2023-03-01T07:07:16;3.90;99.90
7206;DHT22;3644;53.480;10.004;2023-03-01T07:09:46;3.80;99.90
7206;DHT22;3644;53.480;10.004;2023-03-01T07:12:12;4.00;99.90
7206;DHT22;3644;53.480;10.004;2023-03-01T07:14:37;4.00;99.90
7206;DHT22;3644;53.480;10.004;2023-03-01T07:17:03;4.00;99.90
7206;DHT22;3644;53.480;10.004;2023-03-01T07:19:28;3.90;99.90
7206;DHT22;3644;53.480;10.004;2023-03-01T07:21:54;4.00;99.90
7206;DHT22;3644;53.480;10.004;2023-03-01T07:24:21;4.20;99.90
7206;DHT22;3644;53.480;10.004;2023-03-01T07:26:50;4.30;99.90
7206;DHT22;3644;53.480;10.004;2023-03-01T07:29:16;4.30;99.90
7206;DHT22;3644;53.480;10.004;2023-03-01T07:31:42;4.40;99.90
7206;DHT22;3644;53.480;10.004;2023-03-01T07:34:07;4.20;99.90
7206;DHT22;3644;53.480;10.004;2023-03-01T07:36:33;4.30;99.90
7206;DHT22;3644;53.480;10.004;2023-03-01T07:38:58;4.40;99.90
7206;DHT22;3644;53.480;10.004;2023-03-01T07:41:24;4.40;99.90
7206;DHT22;3644;53.480;10.004;2023-03-01T07:43:50;4.50;99.90
7206;DHT22;3644;53.480;10.004;2023-03-01T07:46:15;4.60;99.90
7206;DHT22;3644;53.480;10.004;2023-03-01T07:48:41;4.60;99.90
7206;DHT22;3644;53.480;10.004;2023-03-01T07:51:07;4.50;99.90
7206;DHT22;3644;53.480;10.004;2023-03-01T07:53:33;4.50;99.90
7206;DHT22;3644;53.480;10.004;2023-03-01T07:56:07;4.60;99.90
7206;DHT22;3644;53.480;10.004;2023-03-01T07:58:42;4.50;99.90
7206;DHT22;3644;53.480;10.004;2023-03-01T08:01:13;4.50;99.90
7206;DHT22;3644;53.480;10.004;2023-03-01T08:03:39;4.70;99.90
7206;DHT22;3644;53.480;10.004;2023-03-01T08:06:07;4.90;99.90
7206;DHT22;3644;53.480;10.004;2023-03-01T08:08:33;5.00;99.90
7206;DHT22;3644;53.480;10.004;2023-03-01T08:11:00;4.90;99.90
7206;DHT22;3644;53.480;10.004;2023-03-01T08:13:26;5.00;99.90
7206;DHT22;3644;53.480;10.004;2023-03-01T08:15:52;5.10;99.90
7206;DHT22;3644;53.480;10.004;2023-03-01T08:18:18;5.10;99.90
7206;DHT22;3644;53.480;10.004;2023-03-01T08:20:44;5.30;99.90
7206;DHT22;3644;53.480;10.004;2023-03-01T08:23:10;5.20;99.90
7206;DHT22;3644;53.480;10.004;2023-03-01T08:25:36;5.20;99.90
7206;DHT22;3644;53.480;10.004;2023-03-01T08:28:02;5.20;99.90
7206;DHT22;3644;53.480;10.004;2023-03-01T08:30:27;5.20;99.90
7206;DHT22;3644;53.480;10.004;2023-03-01T08:32:53;5.30;99.90
7206;DHT22;3644;53.480;10.004;2023-03-01T08:35:19;5.40;99.90
7206;DHT22;3644;53.480;10.004;2023-03-01T08:37:45;5.50;99.90
7206;DHT22;3644;53.480;10.004;2023-03-01T08:40:11;5.60;99.90
7206;DHT22;3644;53.480;10.004;2023-03-01T08:42:39;5.60;99.90
7206;DHT22;3644;53.480;10.004;2023-03-01T08:45:05;5.60;99.90
7206;DHT22;3644;53.480;10.004;2023-03-01T08:47:31;5.80;99.90
7206;DHT22;3644;53.480;10.004;2023-03-01T08:49:59;5.40;99.90
7206;DHT22;3644;53.480;10.004;2023-03-01T08:52:24;6.00;99.90
7206;DHT22;3644;53.480;10.004;2023-03-01T08:54:51;6.10;99.90
7206;DHT22;3644;53.480;10.004;2023-03-01T08:57:17;6.10;99.90
7206;DHT22;3644;53.480;10.004;2023-03-01T08:59:42;6.20;99.90
7206;DHT22;3644;53.480;10.004;2023-03-01T09:02:16;6.40;99.90
7206;DHT22;3644;53.480;10.004;2023-03-01T09:04:41;6.40;99.90
7206;DHT22;3644;53.480;10.004;2023-03-01T09:07:08;6.30;99.90
7206;DHT22;3644;53.480;10.004;2023-03-01T09:09:34;6.40;99.90
7206;DHT22;3644;53.480;10.004;2023-03-01T09:12:00;6.50;99.90
7206;DHT22;3644;53.480;10.004;2023-03-01T09:14:25;6.60;99.90
7206;DHT22;3644;53.480;10.004;2023-03-01T09:16:51;6.60;99.90
7206;DHT22;3644;53.480;10.004;2023-03-01T09:19:16;6.60;99.90
7206;DHT22;3644;53.480;10.004;2023-03-01T09:21:42;6.50;99.90
7206;DHT22;3644;53.480;10.004;2023-03-01T09:24:18;6.60;99.90
7206;DHT22;3644;53.480;10.004;2023-03-01T09:26:44;6.60;99.90
7206;DHT22;3644;53.480;10.004;2023-03-01T09:29:11;6.80;99.90
7206;DHT22;3644;53.480;10.004;2023-03-01T09:31:37;6.70;99.90
7206;DHT22;3644;53.480;10.004;2023-03-01T09:34:03;6.70;99.90
7206;DHT22;3644;53.480;10.004;2023-03-01T09:36:29;6.60;99.90
7206;DHT22;3644;53.480;10.004;2023-03-01T09:38:55;6.50;99.90
7206;DHT22;3644;53.480;10.004;2023-03-01T09:41:59;6.60;99.90
7206;DHT22;3644;53.480;10.004;2023-03-01T09:44:48;6.60;99.90
7206;DHT22;3644;53.480;10.004;2023-03-01T09:47:20;6.70;99.90
7206;DHT22;3644;53.480;10.004;2023-03-01T09:50:00;6.80;99.90
7206;DHT22;3644;53.480;10.004;2023-03-01T09:52:36;6.90;99.90
7206;DHT22;3644;53.480;10.004;2023-03-01T09:55:13;6.90;99.90
7206;DHT22;3644;53.480;10.004;2023-03-01T09:57:50;6.90;99.90
7206;DHT22;3644;53.480;10.004;2023-03-01T10:00:39;6.90;99.90
7206;DHT22;3644;53.480;10.004;2023-03-01T10:03:37;7.10;99.90
7206;DHT22;3644;53.480;10.004;2023-03-01T10:06:21;7.20;99.90
7206;DHT22;3644;53.480;10.004;2023-03-01T10:08:49;7.20;99.90
7206;DHT22;3644;53.480;10.004;2023-03-01T10:11:37;7.20;99.90
7206;DHT22;3644;53.480;10.004;2023-03-01T10:14:30;7.30;99.90
7206;DHT22;3644;53.480;10.004;2023-03-01T10:17:02;7.40;99.90
7206;DHT22;3644;53.480;10.004;2023-03-01T10:22:22;7.60;99.90
7206;DHT22;3644;53.480;10.004;2023-03-01T10:24:51;7.60;99.90
7206;DHT22;3644;53.480;10.004;2023-03-01T10:27:20;7.70;99.90
7206;DHT22;3644;53.480;10.004;2023-03-01T10:29:54;7.70;99.90
7206;DHT22;3644;53.480;10.004;2023-03-01T10:32:21;7.80;99.90
7206;DHT22;3644;53.480;10.004;2023-03-01T10:34:47;7.70;99.90
7206;DHT22;3644;53.480;10.004;2023-03-01T10:37:18;7.80;99.90
7206;DHT22;3644;53.480;10.004;2023-03-01T10:40:03;7.90;99.90
7206;DHT22;3644;53.480;10.004;2023-03-01T10:42:35;7.90;99.90
7206;DHT22;3644;53.480;10.004;2023-03-01T10:45:16;7.80;99.90
7206;DHT22;3644;53.480;10.004;2023-03-01T10:47:42;7.90;99.90
7206;DHT22;3644;53.480;10.004;2023-03-01T10:50:20;8.00;99.90
7206;DHT22;3644;53.480;10.004;2023-03-01T10:52:58;8.00;99.90
7206;DHT22;3644;53.480;10.004;2023-03-01T10:55:35;8.10;99.90
7206;DHT22;3644;53.480;10.004;2023-03-01T10:58:20;8.20;99.90
7206;DHT22;3644;53.480;10.004;2023-03-01T11:00:52;8.10;99.90
7206;DHT22;3644;53.480;10.004;2023-03-01T11:03:27;8.00;99.90
7206;DHT22;3644;53.480;10.004;2023-03-01T11:08:42;8.10;99.90
7206;DHT22;3644;53.480;10.004;2023-03-01T11:11:21;8.00;99.90
7206;DHT22;3644;53.480;10.004;2023-03-01T11:14:07;7.80;99.90
7206;DHT22;3644;53.480;10.004;2023-03-01T11:16:39;7.90;99.90
7206;DHT22;3644;53.480;10.004;2023-03-01T11:21:39;8.10;99.90
7206;DHT22;3644;53.480;10.004;2023-03-01T11:24:09;8.20;99.90
7206;DHT22;3644;53.480;10.004;2023-03-01T11:26:40;8.40;99.90
7206;DHT22;3644;53.480;10.004;2023-03-01T11:32:02;8.50;99.90
7206;DHT22;3644;53.480;10.004;2023-03-01T11:37:31;8.70;99.90
7206;DHT22;3644;53.480;10.004;2023-03-01T11:40:17;8.70;99.90
7206;DHT22;3644;53.480;10.004;2023-03-01T11:45:26;8.60;99.90
7206;DHT22;3644;53.480;10.004;2023-03-01T11:50:50;8.70;99.90
7206;DHT22;3644;53.480;10.004;2023-03-01T11:55:57;8.80;99.90
7206;DHT22;3644;53.480;10.004;2023-03-01T11:58:42;8.80;99.90
7206;DHT22;3644;53.480;10.004;2023-03-01T12:04:21;8.70;99.90
7206;DHT22;3644;53.480;10.004;2023-03-01T12:18:23;8.80;99.90
7206;DHT22;3644;53.480;10.004;2023-03-01T12:21:02;8.90;99.90
7206;DHT22;3644;53.480;10.004;2023-03-01T12:31:27;9.30;99.90
7206;DHT22;3644;53.480;10.004;2023-03-01T12:34:14;9.40;99.90
7206;DHT22;3644;53.480;10.004;2023-03-01T12:36:52;9.40;99.90
7206;DHT22;3644;53.480;10.004;2023-03-01T12:47:44;9.30;99.90
7206;DHT22;3644;53.480;10.004;2023-03-01T12:50:41;9.20;99.90
7206;DHT22;3644;53.480;10.004;2023-03-01T12:53:22;8.40;99.90
7206;DHT22;3644;53.480;10.004;2023-03-01T12:55:49;9.40;99.90
7206;DHT22;3644;53.480;10.004;2023-03-01T12:58:31;9.30;99.90
7206;DHT22;3644;53.480;10.004;2023-03-01T13:01:22;9.40;99.90
7206;DHT22;3644;53.480;10.004;2023-03-01T13:06:31;9.60;99.90
7206;DHT22;3644;53.480;10.004;2023-03-01T13:09:13;9.70;99.90
7206;DHT22;3644;53.480;10.004;2023-03-01T13:11:42;9.70;99.90
7206;DHT22;3644;53.480;10.004;2023-03-01T13:16:55;9.70;99.90
7206;DHT22;3644;53.480;10.004;2023-03-01T13:19:23;9.60;99.90
7206;DHT22;3644;53.480;10.004;2023-03-01T13:21:52;9.70;99.90
7206;DHT22;3644;53.480;10.004;2023-03-01T13:29:45;10.00;99.90
7206;DHT22;3644;53.480;10.004;2023-03-01T13:32:27;9.80;99.90
7206;DHT22;3644;53.480;10.004;2023-03-01T13:37:43;9.80;99.90
7206;DHT22;3644;53.480;10.004;2023-03-01T13:42:50;9.90;99.90
7206;DHT22;3644;53.480;10.004;2023-03-01T13:47:58;9.70;99.90
7206;DHT22;3644;53.480;10.004;2023-03-01T13:50:28;9.80;99.90
7206;DHT22;3644;53.480;10.004;2023-03-01T13:53:00;9.90;99.90
7206;DHT22;3644;53.480;10.004;2023-03-01T13:55:42;9.90;99.90
7206;DHT22;3644;53.480;10.004;2023-03-01T13:58:30;10.10;99.90
7206;DHT22;3644;53.480;10.004;2023-03-01T14:01:02;10.30;99.90
7206;DHT22;3644;53.480;10.004;2023-03-01T14:03:30;10.30;99.90
7206;DHT22;3644;53.480;10.004;2023-03-01T14:08:27;10.20;99.90
7206;DHT22;3644;53.480;10.004;2023-03-01T14:16:58;10.10;99.90
7206;DHT22;3644;53.480;10.004;2023-03-01T14:19:30;10.00;99.90
7206;DHT22;3644;53.480;10.004;2023-03-01T14:22:18;10.20;99.90
7206;DHT22;3644;53.480;10.004;2023-03-01T14:24:56;10.30;99.90
7206;DHT22;3644;53.480;10.004;2023-03-01T14:27:30;10.30;99.90
7206;DHT22;3644;53.480;10.004;2023-03-01T14:30:00;10.20;99.90
7206;DHT22;3644;53.480;10.004;2023-03-01T14:32:30;10.40;99.90
7206;DHT22;3644;53.480;10.004;2023-03-01T14:34:58;10.30;99.90
7206;DHT22;3644;53.480;10.004;2023-03-01T14:37:32;10.20;99.90
7206;DHT22;3644;53.480;10.004;2023-03-01T14:39:59;10.10;99.90
7206;DHT22;3644;53.480;10.004;2023-03-01T14:42:29;10.20;99.90
7206;DHT22;3644;53.480;10.004;2023-03-01T14:44:56;10.10;99.90
7206;DHT22;3644;53.480;10.004;2023-03-01T14:52:51;10.10;99.90
7206;DHT22;3644;53.480;10.004;2023-03-01T14:55:44;10.00;99.90
7206;DHT22;3644;53.480;10.004;2023-03-01T14:58:15;10.00;99.90
7206;DHT22;3644;53.480;10.004;2023-03-01T15:00:59;10.10;99.90
7206;DHT22;3644;53.480;10.004;2023-03-01T15:03:31;10.10;99.90
7206;DHT22;3644;53.480;10.004;2023-03-01T15:05:59;10.20;99.90
7206;DHT22;3644;53.480;10.004;2023-03-01T15:08:26;10.30;99.90
7206;DHT22;3644;53.480;10.004;2023-03-01T15:13:39;10.20;99.90
7206;DHT22;3644;53.480;10.004;2023-03-01T15:16:09;10.10;99.90
7206;DHT22;3644;53.480;10.004;2023-03-01T15:18:36;9.90;99.90
7206;DHT22;3644;53.480;10.004;2023-03-01T15:21:13;9.90;99.90
7206;DHT22;3644;53.480;10.004;2023-03-01T15:23:40;10.00;99.90
7206;DHT22;3644;53.480;10.004;2023-03-01T15:26:06;10.10;99.90
7206;DHT22;3644;53.480;10.004;2023-03-01T15:28:34;9.90;99.90
7206;DHT22;3644;53.480;10.004;2023-03-01T15:31:36;9.80;99.90
7206;DHT22;3644;53.480;10.004;2023-03-01T15:34:22;9.80;99.90
7206;DHT22;3644;53.480;10.004;2023-03-01T15:36:49;9.80;99.90
7206;DHT22;3644;53.480;10.004;2023-03-01T15:39:41;9.80;99.90
7206;DHT22;3644;53.480;10.004;2023-03-01T15:42:35;9.80;99.90
7206;DHT22;3644;53.480;10.004;2023-03-01T15:47:57;9.70;99.90
7206;DHT22;3644;53.480;10.004;2023-03-01T15:50:31;9.60;99.90
7206;DHT22;3644;53.480;10.004;2023-03-01T15:53:01;9.60;99.90
7206;DHT22;3644;53.480;10.004;2023-03-01T15:55:31;9.60;99.90
7206;DHT22;3644;53.480;10.004;2023-03-01T15:58:08;9.60;99.90
7206;DHT22;3644;53.480;10.004;2023-03-01T16:00:35;9.60;99.90
7206;DHT22;3644;53.480;10.004;2023-03-01T16:03:00;9.50;99.90
7206;DHT22;3644;53.480;10.004;2023-03-01T16:05:32;9.40;99.90
7206;DHT22;3644;53.480;10.004;2023-03-01T16:07:58;9.40;99.90
7206;DHT22;3644;53.480;10.004;2023-03-01T16:10:24;9.40;99.90
7206;DHT22;3644;53.480;10.004;2023-03-01T16:12:51;9.30;99.90
7206;DHT22;3644;53.480;10.004;2023-03-01T16:15:29;9.30;99.90
7206;DHT22;3644;53.480;10.004;2023-03-01T16:17:56;9.20;99.90
7206;DHT22;3644;53.480;10.004;2023-03-01T16:20:24;9.20;99.90
7206;DHT22;3644;53.480;10.004;2023-03-01T16:22:50;9.00;99.90
7206;DHT22;3644;53.480;10.004;2023-03-01T16:25:18;9.00;99.90
7206;DHT22;3644;53.480;10.004;2023-03-01T16:27:46;9.00;99.90
7206;DHT22;3644;53.480;10.004;2023-03-01T16:30:13;9.10;99.90
7206;DHT22;3644;53.480;10.004;2023-03-01T16:32:40;9.20;99.90
7206;DHT22;3644;53.480;10.004;2023-03-01T16:35:07;9.10;99.90
7206;DHT22;3644;53.480;10.004;2023-03-01T16:37:34;9.10;99.90
7206;DHT22;3644;53.480;10.004;2023-03-01T16:40:00;9.10;99.90
7206;DHT22;3644;53.480;10.004;2023-03-01T16:42:26;9.00;99.90
7206;DHT22;3644;53.480;10.004;2023-03-01T16:44:55;9.00;99.90
7206;DHT22;3644;53.480;10.004;2023-03-01T16:47:21;9.10;99.90
7206;DHT22;3644;53.480;10.004;2023-03-01T16:49:46;9.00;99.90
7206;DHT22;3644;53.480;10.004;2023-03-01T16:52:12;8.90;99.90
7206;DHT22;3644;53.480;10.004;2023-03-01T16:54:37;8.80;99.90
7206;DHT22;3644;53.480;10.004;2023-03-01T16:57:03;8.80;99.90
7206;DHT22;3644;53.480;10.004;2023-03-01T16:59:29;8.80;99.90
7206;DHT22;3644;53.480;10.004;2023-03-01T17:01:55;8.70;99.90
7206;DHT22;3644;53.480;10.004;2023-03-01T17:04:20;8.70;99.90
7206;DHT22;3644;53.480;10.004;2023-03-01T17:06:46;8.70;99.90
7206;DHT22;3644;53.480;10.004;2023-03-01T17:09:13;8.80;99.90
7206;DHT22;3644;53.480;10.004;2023-03-01T17:11:39;8.80;99.90
7206;DHT22;3644;53.480;10.004;2023-03-01T17:14:04;8.80;99.90
7206;DHT22;3644;53.480;10.004;2023-03-01T17:16:30;8.70;99.90
7206;DHT22;3644;53.480;10.004;2023-03-01T17:18:55;8.70;99.90
7206;DHT22;3644;53.480;10.004;2023-03-01T17:21:21;8.70;99.90
7206;DHT22;3644;53.480;10.004;2023-03-01T17:23:48;8.60;99.90
7206;DHT22;3644;53.480;10.004;2023-03-01T17:26:14;8.50;99.90
7206;DHT22;3644;53.480;10.004;2023-03-01T17:28:40;8.40;99.90
7206;DHT22;3644;53.480;10.004;2023-03-01T17:31:08;8.50;99.90
7206;DHT22;3644;53.480;10.004;2023-03-01T17:33:33;8.40;99.90
7206;DHT22;3644;53.480;10.004;2023-03-01T17:35:59;8.40;99.90
7206;DHT22;3644;53.480;10.004;2023-03-01T17:38:25;8.30;99.90
7206;DHT22;3644;53.480;10.004;2023-03-01T17:40:50;8.30;99.90
7206;DHT22;3644;53.480;10.004;2023-03-01T17:43:16;8.20;99.90
7206;DHT22;3644;53.480;10.004;2023-03-01T17:45:43;8.10;99.90
7206;DHT22;3644;53.480;10.004;2023-03-01T17:48:12;7.70;99.90
7206;DHT22;3644;53.480;10.004;2023-03-01T17:50:38;7.70;99.90
7206;DHT22;3644;53.480;10.004;2023-03-01T17:53:07;7.80;99.90
7206;DHT22;3644;53.480;10.004;2023-03-01T17:55:35;7.90;99.90
7206;DHT22;3644;53.480;10.004;2023-03-01T17:58:02;7.70;99.90
7206;DHT22;3644;53.480;10.004;2023-03-01T18:00:28;7.50;99.90
7206;DHT22;3644;53.480;10.004;2023-03-01T18:02:53;7.40;99.90